Cervena, Czech Republic
Current Conditions -  °F | °C
As of 3:00 AM on Thursday 18 Dec 2014 (Local Time) from LKMT Reporting Station
Overcast Overcast  
Wind Chill: 32°   Ceiling: 2300
Heat Index: 39°   Visibility: 6mi
Dew Point: 36°   Wind: 13mph
Humidity: 87%   Direction: 210°SSW
Pressure: 29.83"   Gusts: NA
Location:  49.77°N, 17.55°E
Report Text: LKMT 180100Z 21011KT 9999 SCT015 OVC023 04/02 Q1010 NOSIG
Loading
Personal Weather Stations






























Interactive Weather Map New forecast layout! Learn more

10-Day Weather Forecast

Advertisements
Track Severe Weather on mobile